Time;durP1;ratioP1;P1;durP2;ratioP2;P2;SDS_P1;SDS_P2;PMS_P1;PMS_P2;Temp;Humidity;BMP_temperature;BMP_pressure;BME280_temperature;BME280_humidity;BME280_pressure;Samples;Min_cycle;Max_cycle;Signal;HPM_P1;HPM_P2
2022/01/07 00:00:15;;;;;;;;;12.25;8.75;;;;;6.64;100.00;101531.72;5015937;28;45304;-75
2022/01/07 00:02:44;;;;;;;;;11.50;9.00;;;;;6.66;100.00;101524.09;5035560;28;45497;-76
2022/01/07 00:05:11;;;;;;;;;9.00;8.25;;;;;6.62;100.00;101528.13;5035440;28;45390;-77
2022/01/07 00:07:37;;;;;;;;;12.75;9.75;;;;;6.53;100.00;101499.16;5032054;28;45276;-77
2022/01/07 00:10:04;;;;;;;;;12.25;9.50;;;;;6.53;100.00;101495.72;5015365;28;45764;-76
2022/01/07 00:12:30;;;;;;;;;10.00;8.00;;;;;6.56;100.00;101488.19;5017310;28;45587;-77
2022/01/07 00:14:55;;;;;;;;;10.75;7.00;;;;;6.54;100.00;101488.09;5031953;28;45635;-77
2022/01/07 00:17:21;;;;;;;;;8.75;8.75;;;;;6.49;100.00;101474.91;5034253;28;45450;-77
2022/01/07 00:19:46;;;;;;;;;12.75;10.00;;;;;6.40;100.00;101484.53;5035282;28;45521;-78
2022/01/07 00:22:12;;;;;;;;;9.00;9.00;;;;;6.32;100.00;101475.34;5035500;28;45843;-77
2022/01/07 00:24:38;;;;;;;;;11.25;9.25;;;;;6.28;100.00;101478.50;5035683;28;45929;-77
2022/01/07 00:27:04;;;;;;;;;11.00;11.00;;;;;6.27;100.00;101484.41;5038800;28;45489;-75
2022/01/07 00:29:30;;;;;;;;;9.00;6.50;;;;;6.25;100.00;101473.13;5039330;28;45398;-77
2022/01/07 00:31:55;;;;;;;;;11.25;8.25;;;;;6.23;100.00;101459.25;5022319;28;45630;-76
2022/01/07 00:34:21;;;;;;;;;10.00;8.25;;;;;6.26;100.00;101468.13;5038351;28;45339;-77
2022/01/07 00:36:46;;;;;;;;;7.75;7.75;;;;;6.24;100.00;101467.09;5037510;28;45537;-77
2022/01/07 00:39:12;;;;;;;;;7.75;7.75;;;;;6.25;100.00;101457.69;5038295;28;45378;-76
2022/01/07 00:41:38;;;;;;;;;10.25;9.00;;;;;6.26;100.00;101460.41;5037780;28;45351;-77
2022/01/07 00:44:04;;;;;;;;;6.50;3.00;;;;;6.29;100.00;101470.00;5030366;28;45476;-75
2022/01/07 00:46:30;;;;;;;;;9.00;9.00;;;;;6.22;100.00;101465.19;5033813;28;45214;-77
2022/01/07 00:48:55;;;;;;;;;7.00;7.00;;;;;6.19;100.00;101469.34;5019629;28;45254;-77
2022/01/07 00:51:21;;;;;;;;;9.00;7.25;;;;;6.14;100.00;101473.22;5037251;28;45458;-77
2022/01/07 00:53:47;;;;;;;;;6.75;6.75;;;;;6.13;100.00;101474.00;5038337;28;45522;-77
2022/01/07 00:56:13;;;;;;;;;9.00;8.75;;;;;6.15;100.00;101480.16;5020400;28;45391;-77
2022/01/07 00:58:39;;;;;;;;;8.00;7.00;;;;;6.18;100.00;101457.25;5038907;28;45390;-77
2022/01/07 01:01:05;;;;;;;;;11.00;8.00;;;;;6.13;100.00;101448.31;5020962;28;45348;-76
2022/01/07 01:03:31;;;;;;;;;10.25;8.00;;;;;6.10;100.00;101444.63;5018728;28;45359;-77
2022/01/07 01:05:59;;;;;;;;;9.50;8.25;;;;;6.10;100.00;101454.91;5018156;28;45307;-77
2022/01/07 01:08:26;;;;;;;;;6.25;5.50;;;;;6.09;100.00;101451.44;5018519;28;45532;-77
2022/01/07 01:10:53;;;;;;;;;9.00;3.25;;;;;6.10;100.00;101462.63;5017906;28;45453;-76
2022/01/07 01:13:19;;;;;;;;;9.25;8.50;;;;;6.08;100.00;101447.09;5031946;28;45438;-77
2022/01/07 01:15:44;;;;;;;;;11.00;9.00;;;;;6.08;100.00;101446.19;5022371;28;45792;-76
2022/01/07 01:18:10;;;;;;;;;8.75;7.00;;;;;6.10;100.00;101453.22;5026309;28;45456;-77
2022/01/07 01:20:35;;;;;;;;;11.00;9.50;;;;;6.14;100.00;101449.22;5032170;28;45505;-76
2022/01/07 01:23:01;;;;;;;;;12.25;8.25;;;;;6.18;100.00;101444.41;5000261;28;47970;-77
2022/01/07 01:25:27;;;;;;;;;10.25;9.50;;;;;6.17;100.00;101434.91;5025293;28;45438;-77
2022/01/07 01:27:53;;;;;;;;;11.75;9.75;;;;;6.15;100.00;101449.31;5036835;28;45335;-75
2022/01/07 01:30:19;;;;;;;;;9.25;8.75;;;;;6.16;100.00;101447.63;5037059;28;45553;-77
2022/01/07 01:32:49;;;;;;;;;11.75;9.00;;;;;6.17;100.00;101449.41;5038109;28;45357;-77
2022/01/07 01:35:16;;;;;;;;;12.50;10.25;;;;;6.17;100.00;101455.47;5021945;28;45312;-76
2022/01/07 01:37:42;;;;;;;;;8.00;8.00;;;;;6.15;100.00;101436.47;5017271;28;45489;-76
2022/01/07 01:40:09;;;;;;;;;12.25;10.25;;;;;6.14;100.00;101457.81;5024642;28;45553;-77
2022/01/07 01:42:36;;;;;;;;;13.00;9.50;;;;;6.14;100.00;101449.22;5022443;28;45529;-78
2022/01/07 01:45:02;;;;;;;;;8.75;8.25;;;;;6.11;100.00;101454.13;5035247;28;45314;-76
2022/01/07 01:47:28;;;;;;;;;14.25;9.00;;;;;6.10;100.00;101445.50;5036157;28;45496;-78
2022/01/07 01:49:53;;;;;;;;;8.25;7.00;;;;;6.03;100.00;101448.41;5020870;28;45494;-77
2022/01/07 01:52:19;;;;;;;;;13.25;11.25;;;;;6.00;100.00;101454.22;5017911;28;46002;-77
2022/01/07 01:54:44;;;;;;;;;12.50;9.25;;;;;5.98;100.00;101436.88;5017598;28;45379;-77
2022/01/07 01:57:11;;;;;;;;;11.50;8.50;;;;;5.99;100.00;101433.53;5018568;28;45416;-77
2022/01/07 01:59:37;;;;;;;;;8.00;8.00;;;;;6.02;100.00;101437.25;5022995;28;45670;-75
2022/01/07 02:02:03;;;;;;;;;1.50;1.50;;;;;6.02;100.00;101428.63;5017996;28;45395;-75
2022/01/07 02:04:30;;;;;;;;;8.75;8.75;;;;;6.02;100.00;101426.97;5033518;28;45454;-75
2022/01/07 02:06:55;;;;;;;;;9.00;7.75;;;;;6.06;100.00;101414.31;5036130;28;45575;-75
2022/01/07 02:09:27;;;;;;;;;9.50;8.50;;;;;6.09;100.00;101417.13;5034192;28;45620;-75
2022/01/07 02:11:52;;;;;;;;;11.75;8.50;;;;;6.10;100.00;101434.34;5017032;28;45415;-77
2022/01/07 02:14:18;;;;;;;;;10.25;9.50;;;;;6.12;100.00;101423.38;5028995;28;45265;-76
2022/01/07 02:16:44;;;;;;;;;8.50;8.00;;;;;6.16;100.00;101422.81;5037544;28;45227;-76
2022/01/07 02:19:09;;;;;;;;;8.75;7.00;;;;;6.21;100.00;101410.31;5037641;28;45545;-75
2022/01/07 02:21:38;;;;;;;;;12.00;10.75;;;;;6.23;100.00;101418.13;5018298;28;46623;-76
2022/01/07 02:24:06;;;;;;;;;7.50;7.25;;;;;6.17;100.00;101404.03;5037451;28;45421;-77
2022/01/07 02:26:35;;;;;;;;;9.00;8.25;;;;;6.21;100.00;101399.13;5025600;28;45468;-77
2022/01/07 02:29:03;;;;;;;;;9.50;9.50;;;;;6.26;100.00;101400.34;5027017;28;45566;-78
2022/01/07 02:31:29;;;;;;;;;12.00;9.00;;;;;6.25;100.00;101398.56;5036604;28;45411;-77
2022/01/07 02:33:55;;;;;;;;;13.25;8.75;;;;;6.24;100.00;101397.69;5036531;28;45271;-78
2022/01/07 02:36:20;;;;;;;;;12.25;9.00;;;;;6.27;100.00;101397.88;5031294;28;45772;-78
2022/01/07 02:38:46;;;;;;;;;11.25;7.75;;;;;6.32;100.00;101387.91;5017518;28;45557;-78
2022/01/07 02:41:11;;;;;;;;;9.00;8.00;;;;;6.32;100.00;101373.41;5015848;28;45538;-78
2022/01/07 02:43:37;;;;;;;;;12.50;9.50;;;;;6.36;100.00;101369.34;5024401;28;45508;-78
2022/01/07 02:46:03;;;;;;;;;8.50;7.50;;;;;6.37;100.00;101368.56;5034531;28;45477;-77
2022/01/07 02:48:29;;;;;;;;;14.00;8.25;;;;;6.37;100.00;101373.72;5035834;28;46247;-78
2022/01/07 02:50:55;;;;;;;;;8.75;6.00;;;;;6.41;100.00;101382.53;5024132;28;46268;-77
2022/01/07 02:53:20;;;;;;;;;7.75;7.50;;;;;6.41;100.00;101374.81;5035973;28;45371;-77
2022/01/07 02:55:46;;;;;;;;;6.50;6.00;;;;;6.43;100.00;101375.81;5036438;28;45345;-77
2022/01/07 02:58:12;;;;;;;;;9.00;7.25;;;;;6.44;100.00;101377.63;5036901;28;45553;-77
2022/01/07 03:00:38;;;;;;;;;9.25;7.50;;;;;6.43;100.00;101379.28;5018453;28;46490;-77
2022/01/07 03:03:06;;;;;;;;;8.00;6.00;;;;;6.41;100.00;101370.59;5020219;28;45917;-77
2022/01/07 03:05:32;;;;;;;;;7.00;7.00;;;;;6.39;100.00;101371.25;5036214;28;45295;-77
2022/01/07 03:07:58;;;;;;;;;6.25;6.00;;;;;6.37;100.00;101367.69;5018272;28;45581;-77
2022/01/07 03:10:31;;;;;;;;;6.00;6.00;;;;;6.36;100.00;101364.22;5022007;28;45359;-76
2022/01/07 03:12:59;;;;;;;;;8.75;6.75;;;;;6.37;100.00;101371.16;5006282;28;45516;-78
2022/01/07 03:15:24;;;;;;;;;6.25;6.00;;;;;6.37;100.00;101373.72;5017544;28;45645;-77
2022/01/07 03:17:50;;;;;;;;;9.00;7.00;;;;;6.37;100.00;101359.97;4998874;28;45567;-76
2022/01/07 03:20:18;;;;;;;;;4.00;3.50;;;;;6.44;100.00;101367.31;5016058;28;45290;-77
2022/01/07 03:22:45;;;;;;;;;7.00;6.50;;;;;6.50;100.00;101370.31;5016545;28;45957;-77
2022/01/07 03:25:12;;;;;;;;;9.75;7.00;;;;;6.51;100.00;101372.09;5015639;28;45361;-77
2022/01/07 03:27:38;;;;;;;;;8.75;6.50;;;;;6.50;100.00;101366.09;5022577;28;45344;-78
2022/01/07 03:30:07;;;;;;;;;12.00;6.50;;;;;6.50;100.00;101350.66;5035314;28;45510;-77
2022/01/07 03:32:33;;;;;;;;;7.75;6.75;;;;;6.53;100.00;101360.25;5030232;28;45383;-78
2022/01/07 03:34:58;;;;;;;;;8.50;7.50;;;;;6.56;100.00;101354.41;5034835;28;45354;-78
2022/01/07 03:37:24;;;;;;;;;4.50;4.50;;;;;6.59;100.00;101357.22;5035941;28;45376;-77
2022/01/07 03:39:50;;;;;;;;;8.00;7.00;;;;;6.61;100.00;101353.06;5034039;28;45747;-75
2022/01/07 03:42:15;;;;;;;;;8.00;8.00;;;;;6.60;100.00;101349.59;5034381;28;45457;-77
2022/01/07 03:44:41;;;;;;;;;6.50;6.25;;;;;6.56;100.00;101359.56;5020120;28;45561;-77
2022/01/07 03:47:07;;;;;;;;;7.50;5.75;;;;;6.50;100.00;101350.66;5016503;28;45336;-77
2022/01/07 03:49:33;;;;;;;;;13.25;7.25;;;;;6.47;100.00;101339.25;5015950;28;45268;-77
2022/01/07 03:51:59;;;;;;;;;4.00;4.00;;;;;6.50;100.00;101350.66;5025138;28;45271;-77
2022/01/07 03:54:24;;;;;;;;;6.50;6.50;;;;;6.54;100.00;101338.88;5036063;28;45425;-77
2022/01/07 03:56:50;;;;;;;;;9.25;7.00;;;;;6.60;100.00;101353.84;5031377;28;45624;-77
2022/01/07 03:59:15;;;;;;;;;7.00;6.00;;;;;6.62;100.00;101336.84;5026487;28;45917;-77
2022/01/07 04:01:41;;;;;;;;;6.00;6.00;;;;;6.62;100.00;101337.72;5022715;28;45228;-78
2022/01/07 04:04:07;;;;;;;;;9.00;5.00;;;;;6.60;100.00;101330.72;5015828;28;45378;-77
2022/01/07 04:06:32;;;;;;;;;7.00;4.00;;;;;6.59;100.00;101327.22;5032607;28;45584;-77
2022/01/07 04:08:58;;;;;;;;;7.25;6.00;;;;;6.63;100.00;101318.94;5034263;28;45975;-77
2022/01/07 04:11:24;;;;;;;;;3.25;3.25;;;;;6.66;100.00;101316.59;5019431;28;45459;-77
2022/01/07 04:13:50;;;;;;;;;6.50;4.00;;;;;6.69;100.00;101323.63;5019393;28;45855;-75
2022/01/07 04:16:16;;;;;;;;;3.75;3.25;;;;;6.70;100.00;101322.84;5033846;28;45585;-77
2022/01/07 04:18:42;;;;;;;;;8.00;6.25;;;;;6.70;100.00;101329.63;5035525;28;45788;-77
2022/01/07 04:21:07;;;;;;;;;7.75;5.25;;;;;6.70;100.00;101319.34;5035005;28;45356;-76
2022/01/07 04:23:33;;;;;;;;;4.00;3.00;;;;;6.69;100.00;101323.63;5013490;28;45385;-77
2022/01/07 04:25:58;;;;;;;;;4.50;4.50;;;;;6.70;100.00;101312.53;5015172;28;45362;-76
2022/01/07 04:28:24;;;;;;;;;6.50;4.00;;;;;6.72;100.00;101321.25;5015412;28;46142;-75
2022/01/07 04:30:50;;;;;;;;;4.00;4.00;;;;;6.71;100.00;101311.75;5015390;28;45275;-74
2022/01/07 04:33:22;;;;;;;;;3.00;3.00;;;;;6.69;100.00;101312.44;5015431;28;45343;-76
2022/01/07 04:35:48;;;;;;;;;2.75;2.00;;;;;6.70;100.00;101320.25;4997427;28;45564;-76
2022/01/07 04:38:14;;;;;;;;;3.75;3.00;;;;;6.71;100.00;101323.72;5015447;28;45277;-75
2022/01/07 04:40:40;;;;;;;;;4.00;4.00;;;;;6.72;100.00;101328.06;5025722;28;45266;-74
2022/01/07 04:43:07;;;;;;;;;7.75;5.75;;;;;6.73;100.00;101329.84;5033971;28;45477;-75
2022/01/07 04:45:34;;;;;;;;;4.00;4.00;;;;;6.75;100.00;101336.88;5031243;28;46482;-77
2022/01/07 04:47:59;;;;;;;;;2.00;2.00;;;;;6.78;100.00;101339.69;5029773;28;45862;-78
2022/01/07 04:50:25;;;;;;;;;8.00;6.00;;;;;6.85;100.00;101340.13;5013387;28;45573;-77
2022/01/07 04:52:52;;;;;;;;;3.00;3.00;;;;;6.86;100.00;101334.19;5034689;28;45410;-78
2022/01/07 04:55:22;;;;;;;;;5.25;3.00;;;;;6.90;100.00;101328.44;5035492;28;45522;-77
2022/01/07 04:57:48;;;;;;;;;4.75;3.50;;;;;6.93;100.00;101333.81;5034555;28;45399;-78
2022/01/07 05:00:17;;;;;;;;;2.25;2.00;;;;;6.91;100.00;101328.53;5032621;28;45837;-77
2022/01/07 05:02:43;;;;;;;;;7.00;4.25;;;;;6.93;100.00;101326.09;5013804;28;45319;-78
2022/01/07 05:05:09;;;;;;;;;6.00;3.75;;;;;6.94;100.00;101326.19;5033151;28;45604;-78
2022/01/07 05:07:36;;;;;;;;;3.00;2.75;;;;;6.95;100.00;101322.81;5034626;28;45414;-78
2022/01/07 05:10:05;;;;;;;;;3.00;3.00;;;;;6.90;100.00;101307.84;5027383;28;45255;-78
2022/01/07 05:12:31;;;;;;;;;6.75;4.00;;;;;6.83;100.00;101311.69;5035844;28;45409;-78
2022/01/07 05:14:57;;;;;;;;;4.75;3.25;;;;;6.81;100.00;101295.25;5035921;28;45439;-77
2022/01/07 05:17:22;;;;;;;;;6.25;5.50;;;;;6.77;100.00;101299.28;5037783;28;45517;-77
2022/01/07 05:19:48;;;;;;;;;3.00;3.00;;;;;6.73;100.00;101301.56;5038237;28;45283;-77
2022/01/07 05:22:14;;;;;;;;;7.00;3.00;;;;;6.71;100.00;101305.69;5036676;28;45360;-77
2022/01/07 05:24:39;;;;;;;;;3.00;3.00;;;;;6.68;100.00;101311.53;5019482;28;45566;-76
2022/01/07 05:27:05;;;;;;;;;3.25;3.25;;;;;6.66;100.00;101311.44;5037350;28;45290;-77
2022/01/07 05:29:34;;;;;;;;;2.50;1.00;;;;;6.67;100.00;101320.03;5025053;28;45552;-78
2022/01/07 05:32:04;;;;;;;;;2.75;2.75;;;;;6.66;100.00;101324.31;5029986;28;45362;-77
2022/01/07 05:34:30;;;;;;;;;3.00;3.00;;;;;6.66;100.00;101326.88;5037161;28;45608;-78
2022/01/07 05:36:56;;;;;;;;;4.75;4.75;;;;;6.64;100.00;101313.00;5036680;28;45836;-77
2022/01/07 05:39:22;;;;;;;;;2.50;2.50;;;;;6.62;100.00;101298.25;5036282;28;45277;-77
2022/01/07 05:41:48;;;;;;;;;3.50;3.00;;;;;6.58;100.00;101311.69;5033961;28;45422;-77
2022/01/07 05:44:13;;;;;;;;;4.00;3.50;;;;;6.56;100.00;101309.03;5028112;28;45548;-77
2022/01/07 05:46:39;;;;;;;;;5.50;3.00;;;;;6.56;100.00;101310.69;5035824;28;45440;-77
2022/01/07 05:49:05;;;;;;;;;3.00;3.00;;;;;6.62;100.00;101308.56;5032882;28;45523;-77
2022/01/07 05:51:30;;;;;;;;;3.00;3.00;;;;;6.61;100.00;101310.22;5018186;28;45304;-77
2022/01/07 05:53:56;;;;;;;;;3.25;3.00;;;;;6.61;100.00;101317.06;5018010;28;45481;-77
2022/01/07 05:56:21;;;;;;;;;6.25;4.00;;;;;6.64;100.00;101307.88;5026073;28;45541;-78
2022/01/07 05:58:47;;;;;;;;;6.25;3.00;;;;;6.67;100.00;101309.75;5037557;28;45372;-78
2022/01/07 06:01:13;;;;;;;;;5.50;3.00;;;;;6.69;100.00;101315.91;5035373;28;45517;-77
2022/01/07 06:03:40;;;;;;;;;2.25;2.25;;;;;6.70;100.00;101315.13;5037476;28;45576;-78
2022/01/07 06:06:06;;;;;;;;;5.25;2.75;;;;;6.71;100.00;101311.75;5037295;28;46252;-78
2022/01/07 06:08:31;;;;;;;;;4.50;2.75;;;;;6.72;100.00;101313.53;5025252;28;45510;-78
2022/01/07 06:10:57;;;;;;;;;4.00;4.00;;;;;6.70;100.00;101309.06;5030935;28;45338;-78
2022/01/07 06:13:23;;;;;;;;;4.25;4.25;;;;;6.69;100.00;101308.19;5036243;28;45559;-78
2022/01/07 06:15:49;;;;;;;;;5.00;3.00;;;;;6.69;100.00;101307.31;5034378;28;45831;-75
2022/01/07 06:18:15;;;;;;;;;5.25;3.00;;;;;6.68;100.00;101321.81;5036570;28;45394;-77
2022/01/07 06:20:41;;;;;;;;;4.25;2.50;;;;;6.66;100.00;101328.53;5034533;28;45432;-78
2022/01/07 06:23:06;;;;;;;;;4.00;4.00;;;;;6.63;100.00;101323.22;5026144;28;46754;-78
2022/01/07 06:25:32;;;;;;;;;3.75;3.75;;;;;6.65;100.00;101319.03;4998717;28;48026;-77
2022/01/07 06:27:57;;;;;;;;;4.75;3.00;;;;;6.65;100.00;101329.31;5020002;28;45510;-77
2022/01/07 06:30:23;;;;;;;;;6.50;4.00;;;;;6.68;100.00;101326.09;5034097;28;45462;-77
2022/01/07 06:32:49;;;;;;;;;5.00;2.25;;;;;6.70;100.00;101325.41;5017785;28;45694;-78
2022/01/07 06:35:14;;;;;;;;;1.25;1.25;;;;;6.70;100.00;101319.34;5017814;28;46084;-77
2022/01/07 06:37:40;;;;;;;;;0.25;0.00;;;;;6.66;100.00;101314.00;5017072;28;45405;-77
2022/01/07 06:40:07;;;;;;;;;3.25;2.25;;;;;6.65;100.00;101322.53;5024974;28;45351;-77
2022/01/07 06:42:33;;;;;;;;;4.50;2.75;;;;;6.66;100.00;101321.72;5035547;28;45333;-78
2022/01/07 06:44:58;;;;;;;;;3.00;3.00;;;;;6.68;100.00;101320.94;5033427;28;45870;-78
2022/01/07 06:47:25;;;;;;;;;5.25;4.00;;;;;6.71;100.00;101316.00;5018173;28;45425;-78
2022/01/07 06:49:50;;;;;;;;;2.25;2.00;;;;;6.74;100.00;101321.34;5036699;28;45361;-75
2022/01/07 06:52:16;;;;;;;;;3.00;3.00;;;;;6.73;100.00;101315.34;5018273;28;45598;-77
2022/01/07 06:54:42;;;;;;;;;4.75;3.00;;;;;6.72;100.00;101310.97;5028556;28;45972;-78
2022/01/07 06:57:07;;;;;;;;;4.75;4.00;;;;;6.74;100.00;101313.63;5035575;28;45521;-78
2022/01/07 06:59:33;;;;;;;;;2.75;2.75;;;;;6.74;100.00;101323.94;5036012;28;45292;-78
2022/01/07 07:01:59;;;;;;;;;3.50;2.50;;;;;6.72;100.00;101323.84;5037819;28;45269;-78
2022/01/07 07:04:24;;;;;;;;;3.50;2.00;;;;;6.74;100.00;101318.78;5035849;28;45400;-78
2022/01/07 07:06:50;;;;;;;;;3.00;3.00;;;;;6.75;100.00;101329.16;5032608;28;45352;-75
2022/01/07 07:09:17;;;;;;;;;5.00;3.00;;;;;6.78;100.00;101334.53;5029494;28;45414;-80
2022/01/07 07:11:44;;;;;;;;;5.25;3.50;;;;;6.79;100.00;101322.56;5037850;28;45593;-85
2022/01/07 07:14:13;;;;;;;;;4.25;3.00;;;;;6.80;100.00;101330.41;5032973;28;45599;-83
2022/01/07 07:16:40;;;;;;;;;3.25;3.00;;;;;6.84;100.00;101339.22;5035516;28;45166;-81
2022/01/07 07:19:06;;;;;;;;;3.25;2.00;;;;;6.84;100.00;101340.91;5047113;28;45255;-86
2022/01/07 07:21:31;;;;;;;;;5.00;2.50;;;;;6.85;100.00;101342.69;5041389;28;45526;-83
2022/01/07 07:23:57;;;;;;;;;3.50;1.50;;;;;6.86;100.00;101342.78;5041703;28;45969;-84
2022/01/07 07:26:22;;;;;;;;;7.75;4.25;;;;;6.86;100.00;101332.50;5022434;28;45342;-78
2022/01/07 07:28:48;;;;;;;;;5.25;4.00;;;;;6.94;100.00;101343.31;5033775;28;45400;-79
2022/01/07 07:31:17;;;;;;;;;4.25;3.00;;;;;6.95;100.00;101333.13;5030447;28;45470;-78
2022/01/07 07:33:56;;;;;;;;;6.25;4.00;;;;;6.95;100.00;101337.38;5017729;28;45540;-78
2022/01/07 07:38:55;;;;;;;;;3.00;3.00;;;;;6.99;100.00;101344.50;5033118;28;45483;-76
2022/01/07 07:41:21;;;;;;;;;3.50;3.00;;;;;6.99;100.00;101353.94;5034490;28;45668;-77
2022/01/07 07:43:53;;;;;;;;;5.25;3.00;;;;;6.97;100.00;101351.22;5015978;28;46897;-77
2022/01/07 07:46:20;;;;;;;;;4.50;4.50;;;;;6.94;100.00;101351.03;5025148;28;45823;-79
2022/01/07 07:48:47;;;;;;;;;3.00;3.00;;;;;6.95;100.00;101364.00;5035607;28;45382;-80
2022/01/07 07:51:14;;;;;;;;;5.00;3.00;;;;;6.91;100.00;101350.81;5015668;28;45466;-80
2022/01/07 07:53:40;;;;;;;;;2.75;1.25;;;;;6.85;100.00;101365.84;5015955;28;46014;-79
2022/01/07 07:56:08;;;;;;;;;3.00;2.75;;;;;6.82;100.00;101335.63;4999415;28;45954;-80
2022/01/07 07:58:34;;;;;;;;;3.00;1.25;;;;;6.79;100.00;101348.31;5015488;28;45467;-79
2022/01/07 08:01:00;;;;;;;;;2.75;2.75;;;;;6.76;100.00;101345.53;5022964;28;45580;-80
2022/01/07 08:03:26;;;;;;;;;3.25;2.00;;;;;6.74;100.00;101354.81;5034211;28;45692;-81
2022/01/07 08:05:52;;;;;;;;;6.25;4.00;;;;;6.74;100.00;101349.66;5022481;28;45439;-81
2022/01/07 08:08:17;;;;;;;;;2.00;2.00;;;;;6.72;100.00;101354.72;5015747;28;45467;-79
2022/01/07 08:10:49;;;;;;;;;3.00;3.00;;;;;6.71;100.00;101359.72;5015515;28;45466;-78
2022/01/07 08:15:59;;;;;;;;;3.75;2.00;;;;;6.72;100.00;101369.25;5029083;28;46742;-78
2022/01/07 08:18:27;;;;;;;;;2.25;1.50;;;;;6.71;100.00;101363.22;5034316;28;45694;-78
2022/01/07 08:20:55;;;;;;;;;3.25;1.00;;;;;6.71;100.00;101359.72;5033593;28;45648;-78
2022/01/07 08:23:21;;;;;;;;;0.50;0.50;;;;;6.70;100.00;101361.44;5034981;28;46238;-78
2022/01/07 08:25:46;;;;;;;;;2.00;2.00;;;;;6.69;100.00;101358.75;5021630;28;45468;-78
2022/01/07 08:28:14;;;;;;;;;1.00;1.00;;;;;6.70;100.00;101358.84;5002061;28;45455;-78
2022/01/07 08:31:23;;;;;;;;;1.00;1.00;;;;;6.74;100.00;101359.97;5032255;28;45538;-76
2022/01/07 08:36:32;;;;;;;;;1.25;1.00;;;;;6.78;100.00;101354.25;5030532;28;45814;-76
2022/01/07 08:38:59;;;;;;;;;0.75;0.00;;;;;6.75;100.00;101348.88;5028274;28;45391;-79
2022/01/07 08:41:30;;;;;;;;;1.00;1.00;;;;;6.75;100.00;101347.19;5034041;28;45466;-78
2022/01/07 08:43:56;;;;;;;;;2.50;1.00;;;;;6.77;100.00;101337.91;5033994;28;45599;-77
2022/01/07 08:46:21;;;;;;;;;1.50;0.50;;;;;6.77;100.00;101321.56;5035516;28;45360;-77
2022/01/07 08:48:47;;;;;;;;;2.75;1.00;;;;;6.77;100.00;101317.31;5039078;28;45207;-78
2022/01/07 08:51:13;;;;;;;;;4.00;0.00;;;;;6.76;100.00;101302.66;5033707;28;45568;-79
2022/01/07 08:53:40;;;;;;;;;2.00;1.00;;;;;6.78;100.00;101290.78;5035924;28;46386;-80
2022/01/07 08:56:07;;;;;;;;;1.00;1.00;;;;;6.85;100.00;101297.25;5037755;28;45464;-81
2022/01/07 08:58:34;;;;;;;;;1.00;1.00;;;;;6.87;100.00;101298.25;5029201;28;45696;-80
2022/01/07 09:01:00;;;;;;;;;1.00;1.00;;;;;6.89;100.00;101312.13;5039099;28;45250;-81
2022/01/07 09:03:26;;;;;;;;;4.00;1.00;;;;;6.91;100.00;101317.34;5038874;28;45430;-81
2022/01/07 09:05:51;;;;;;;;;2.50;1.75;;;;;6.97;100.00;101338.34;5033838;28;45430;-80
2022/01/07 09:08:17;;;;;;;;;0.00;0.00;;;;;6.99;100.00;101339.34;5036199;28;45549;-80
2022/01/07 09:10:43;;;;;;;;;0.00;0.00;;;;;7.00;100.00;101343.72;5038009;28;45572;-80
2022/01/07 09:13:10;;;;;;;;;1.00;1.00;;;;;7.02;100.00;101351.56;5014386;28;46875;-81
2022/01/07 09:15:36;;;;;;;;;1.00;1.00;;;;;7.04;100.00;101345.72;5033624;28;46137;-78
2022/01/07 09:18:10;;;;;;;;;0.50;0.00;;;;;7.03;100.00;101333.63;5037809;28;45391;-81
2022/01/07 09:20:42;;;;;;;;;1.75;1.00;;;;;7.01;100.00;101349.78;5035507;28;45425;-80
2022/01/07 09:23:09;;;;;;;;;2.00;0.75;;;;;6.99;100.00;101347.06;5029679;28;45531;-80
2022/01/07 09:25:35;;;;;;;;;0.00;0.00;;;;;6.93;100.00;101347.56;5032443;28;45354;-82
2022/01/07 09:28:01;;;;;;;;;4.00;1.00;;;;;6.89;100.00;101352.41;5035026;28;45521;-81
2022/01/07 09:30:27;;;;;;;;;1.00;0.75;;;;;6.88;100.00;101350.59;5043191;28;45412;-80
2022/01/07 09:32:53;;;;;;;;;3.25;1.00;;;;;6.87;100.00;101351.38;5041828;28;45271;-81
2022/01/07 09:35:19;;;;;;;;;2.50;0.75;;;;;6.92;100.00;101355.19;5037007;28;45627;-79
2022/01/07 09:37:44;;;;;;;;;1.00;1.00;;;;;6.97;100.00;101356.38;5020442;28;45357;-80
2022/01/07 09:40:12;;;;;;;;;3.00;0.50;;;;;7.00;100.00;101350.56;5024357;28;45645;-78
2022/01/07 09:42:38;;;;;;;;;1.00;1.00;;;;;7.00;100.00;101346.28;5025878;28;45536;-79
2022/01/07 09:45:05;;;;;;;;;2.00;1.00;;;;;6.99;100.00;101351.34;5036937;28;46462;-79
2022/01/07 09:47:30;;;;;;;;;1.00;1.00;;;;;6.95;100.00;101350.25;5036772;28;45503;-78
2022/01/07 09:49:56;;;;;;;;;0.50;0.50;;;;;6.94;100.00;101358.75;5037131;28;45426;-79
2022/01/07 09:52:23;;;;;;;;;0.00;0.00;;;;;6.96;100.00;101349.47;5035359;28;45410;-79
2022/01/07 09:54:49;;;;;;;;;1.00;0.50;;;;;6.97;100.00;101348.66;5044340;28;45808;-78
2022/01/07 09:57:16;;;;;;;;;1.00;1.00;;;;;7.04;100.00;101339.66;5024647;28;45213;-78
2022/01/07 09:59:42;;;;;;;;;2.75;1.00;;;;;7.12;100.00;101334.25;5037294;28;45534;-77
2022/01/07 10:02:09;;;;;;;;;0.00;0.00;;;;;7.23;100.00;101334.06;5036444;28;45673;-78
2022/01/07 10:04:37;;;;;;;;;0.00;0.00;;;;;7.26;100.00;101337.75;5032635;28;45891;-79
2022/01/07 10:07:20;;;;;;;;;1.00;0.00;;;;;7.33;100.00;101336.47;5035236;28;45533;-79
2022/01/07 10:10:02;;;;;;;;;3.00;1.00;;;;;7.38;100.00;101331.63;5028628;28;45413;-79
2022/01/07 10:12:30;;;;;;;;;2.25;1.00;;;;;7.41;100.00;101340.44;5036230;28;46040;-78
2022/01/07 10:15:09;;;;;;;;;0.25;0.25;;;;;7.43;100.00;101350.88;5036326;28;45312;-78
2022/01/07 10:17:36;;;;;;;;;0.50;0.50;;;;;7.43;100.00;101336.28;5036678;28;45550;-77
2022/01/07 10:20:03;;;;;;;;;1.00;1.00;;;;;7.47;100.00;101342.53;5038195;28;45359;-78
2022/01/07 10:22:29;;;;;;;;;0.25;0.25;;;;;7.51;100.00;101343.63;5037053;28;45569;-78
2022/01/07 10:25:00;;;;;;;;;1.25;1.00;;;;;7.53;100.00;101334.31;5016525;28;45460;-78
2022/01/07 10:27:34;;;;;;;;;0.00;0.00;;;;;7.53;100.00;101327.50;5036599;28;45443;-78
2022/01/07 10:29:59;;;;;;;;;1.00;1.00;;;;;7.55;100.00;101327.56;5017936;28;45608;-77
2022/01/07 10:32:29;;;;;;;;;2.00;2.00;;;;;7.60;100.00;101318.47;5024553;28;46051;-77
2022/01/07 10:35:07;;;;;;;;;1.00;1.00;;;;;7.65;100.00;101323.94;5028698;28;45517;-79
2022/01/07 10:37:35;;;;;;;;;0.75;0.75;;;;;7.63;100.00;101307.47;5016506;28;45391;-78
2022/01/07 10:40:01;;;;;;;;;2.00;2.00;;;;;7.63;100.00;101321.22;5018193;28;45357;-79
2022/01/07 10:42:27;;;;;;;;;0.75;0.00;;;;;7.62;100.00;101331.44;5033970;28;46141;-78
2022/01/07 10:45:05;;;;;;;;;1.50;1.00;;;;;7.59;100.00;101309.84;5034362;28;45549;-77
2022/01/07 10:47:30;;;;;;;;;1.00;0.00;;;;;7.56;100.00;101314.78;5015081;28;45447;-77
2022/01/07 10:50:19;;;;;;;;;2.00;1.00;;;;;7.63;100.00;101307.47;5035408;28;45338;-78
2022/01/07 10:52:45;;;;;;;;;1.00;1.00;;;;;7.67;100.00;101317.16;5035489;28;46375;-78
2022/01/07 10:55:19;;;;;;;;;0.00;0.00;;;;;7.73;100.00;101307.28;5035677;28;45330;-77
2022/01/07 10:57:48;;;;;;;;;1.75;1.75;;;;;7.78;100.00;101311.00;5034220;28;45955;-77
2022/01/07 11:00:20;;;;;;;;;0.50;0.50;;;;;7.86;100.00;101326.97;5041945;28;45336;-80
2022/01/07 11:02:47;;;;;;;;;1.50;1.50;;;;;7.91;100.00;101307.56;5025663;28;45477;-78
2022/01/07 11:05:13;;;;;;;;;1.50;0.00;;;;;7.97;100.00;101307.06;5046966;28;45686;-77
2022/01/07 11:07:40;;;;;;;;;0.25;0.00;;;;;7.99;100.00;101313.22;5044444;28;44809;-76
2022/01/07 11:10:09;;;;;;;;;3.25;1.00;;;;;8.03;100.00;101333.22;5046085;28;45466;-77
2022/01/07 11:12:35;;;;;;;;;0.00;0.00;;;;;8.05;100.00;101314.47;5040350;28;45676;-86
2022/01/07 11:15:05;;;;;;;;;1.00;0.00;;;;;8.04;100.00;101294.63;5036431;28;45253;-86
2022/01/07 11:17:31;;;;;;;;;0.00;0.00;;;;;8.01;100.00;101290.97;5039356;28;45353;-89
2022/01/07 11:20:02;;;;;;;;;0.00;0.00;;;;;8.01;100.00;101286.72;5021608;28;45568;-81
2022/01/07 11:22:29;;;;;;;;;1.00;0.00;;;;;7.99;100.00;101295.16;5039693;28;46533;-86
2022/01/07 11:25:06;;;;;;;;;2.00;0.00;;;;;7.94;100.00;101300.00;5036937;28;45446;-84
2022/01/07 11:27:49;;;;;;;;;1.00;1.00;;;;;7.92;100.00;101308.44;5047101;28;45406;-89
2022/01/07 11:30:19;;;;;;;;;2.00;1.25;;;;;7.85;100.00;101299.41;5039579;28;45759;-91